EDT,Max TemperatureF,Mean TemperatureF,Min TemperatureF,Max Dew PointF,MeanDew PointF,Min DewpointF,Max Humidity, Mean Humidity, Min Humidity, Max Sea Level PressureIn, Mean Sea Level PressureIn, Min Sea Level PressureIn, Max VisibilityMiles, Mean VisibilityMiles, Min VisibilityMiles, Max Wind SpeedMPH, Mean Wind SpeedMPH, Max Gust SpeedMPH,PrecipitationIn, CloudCover, Events, WindDirDegrees
2014-3-1,73,66,59,57,53,48,83,67,41,30.24,30.15,30.08,10,10,10,15,8,,0.00,0,,55
2014-3-2,77,70,62,62,59,57,90,75,53,30.22,30.13,30.06,10,10,10,15,9,,0.00,0,,67
2014-3-3,75,70,64,67,63,60,93,81,64,30.08,30.03,29.99,10,10,10,13,7,18,0.00,1,,202
2014-3-4,75,70,66,67,64,62,93,84,64,30.05,30.01,29.97,10,10,9,15,6,,0.00,6,,2
2014-3-5,78,71,64,67,64,62,100,86,64,30.04,30.00,29.94,10,7,2,12,8,,0.01,5,Rain,83
2014-3-6,70,67,64,67,65,62,97,92,78,29.97,29.86,29.73,10,6,1,24,13,,1.05,7,Rain-Thunderstorm,137
2014-3-7,68,61,54,66,55,48,93,81,70,30.07,29.89,29.78,10,10,10,18,9,26,0.00,7,,333
2014-3-8,71,61,51,56,49,45,86,73,49,30.19,30.12,30.05,10,10,10,16,10,,0.00,1,,45
2014-3-9,73,66,60,60,57,55,93,77,53,30.21,30.14,30.10,10,10,7,10,7,,0.00,0,,35
2014-3-10,71,66,61,59,56,49,90,72,47,30.14,30.07,30.01,10,10,10,8,5,,0.00,2,,342
2014-3-11,73,68,62,66,60,55,94,80,53,30.01,29.92,29.86,10,10,10,13,6,,0.00,0,,205
2014-3-12,75,72,68,69,67,61,93,86,71,29.88,29.82,29.74,10,9,1,20,11,24,0.24,6,Rain,267
2014-3-13,68,62,55,61,48,38,81,63,36,30.21,30.04,29.88,10,10,10,18,13,29,0.00,2,,358
2014-3-14,73,65,57,56,49,44,75,59,43,30.28,30.21,30.13,10,10,10,18,12,,0.00,0,,59
2014-3-15,77,68,61,59,57,55,81,68,50,30.17,30.10,30.02,10,10,10,15,8,,0.00,0,,111
2014-3-16,80,72,64,67,63,59,87,74,56,30.02,29.88,29.77,10,10,10,23,13,32,0.00,1,,179
2014-3-17,75,72,69,72,69,65,96,90,76,29.77,29.70,29.65,10,6,0,22,16,34,2.05,7,Fog-Rain-Thunderstorm,219
2014-3-18,71,66,62,70,58,51,96,77,51,30.04,29.82,29.66,10,9,4,20,12,30,0.11,4,Rain,323
2014-3-19,73,66,61,59,56,53,84,72,55,30.12,30.06,30.03,10,10,7,13,7,,0.00,0,,33
2014-3-20,75,67,61,62,59,57,90,80,64,30.09,30.04,29.98,10,10,6,16,8,,0.00,2,,15
2014-3-21,80,72,64,68,63,59,87,77,60,30.09,30.03,29.98,10,10,8,14,7,,0.00,2,,63
2014-3-22,79,72,66,67,64,61,93,76,58,30.07,30.03,30.00,10,10,7,13,7,,0.00,1,,239
2014-3-23,78,73,69,70,66,63,90,79,66,30.05,30.02,29.97,10,10,10,17,6,22,0.00,7,,274
2014-3-24,71,68,66,67,66,64,97,91,83,30.07,29.98,29.92,10,8,2,12,6,,0.81,7,Rain,235
2014-3-25,71,67,63,67,63,41,97,85,43,30.05,29.91,29.86,10,9,2,20,10,28,0.37,6,Rain,285
2014-3-26,64,58,51,44,35,28,58,43,30,30.30,30.22,30.08,10,10,10,24,15,30,0.00,0,,56
2014-3-27,68,62,57,59,53,43,78,72,58,30.31,30.25,30.20,10,10,10,20,14,,0.00,3,Rain,118
2014-3-28,75,70,64,67,64,59,90,81,71,30.18,30.08,30.00,10,10,8,21,11,,0.01,3,Rain,155
2014-3-29,77,72,68,72,68,64,96,91,81,30.03,29.97,29.89,10,6,0,18,7,29,0.78,7,Fog-Rain-Thunderstorm,245
2014-3-30,69,64,61,62,52,46,87,67,45,30.11,30.04,29.95,10,10,10,17,11,24,0.00,0,,347
2014-3-31,75,66,60,55,51,46,81,60,41,30.17,30.12,30.09,10,10,10,10,5,,0.00,0,,29